sensor_id;sensor_type;location;lat;lon;timestamp;P1;durP1;ratioP1;P2;durP2;ratioP2
15665;SDS011;20725;51.196;3.510;2022-11-20T00:00:41;92.97;;;42.33;;
15665;SDS011;20725;51.196;3.510;2022-11-20T00:03:23;89.40;;;42.90;;
15665;SDS011;20725;51.196;3.510;2022-11-20T00:06:13;86.33;;;43.10;;
15665;SDS011;20725;51.196;3.510;2022-11-20T00:08:42;82.33;;;42.47;;
15665;SDS011;20725;51.196;3.510;2022-11-20T00:11:16;91.77;;;42.83;;
15665;SDS011;20725;51.196;3.510;2022-11-20T00:13:52;86.80;;;43.00;;
15665;SDS011;20725;51.196;3.510;2022-11-20T00:16:29;92.90;;;44.27;;
15665;SDS011;20725;51.196;3.510;2022-11-20T00:19:07;110.33;;;47.00;;
15665;SDS011;20725;51.196;3.510;2022-11-20T00:21:39;106.90;;;45.53;;
15665;SDS011;20725;51.196;3.510;2022-11-20T00:24:24;104.40;;;46.57;;
15665;SDS011;20725;51.196;3.510;2022-11-20T00:27:02;92.90;;;45.47;;
15665;SDS011;20725;51.196;3.510;2022-11-20T00:29:47;98.90;;;44.97;;
15665;SDS011;20725;51.196;3.510;2022-11-20T00:32:26;104.40;;;48.97;;
15665;SDS011;20725;51.196;3.510;2022-11-20T00:35:14;102.43;;;44.97;;
15665;SDS011;20725;51.196;3.510;2022-11-20T00:38:18;95.87;;;45.77;;
15665;SDS011;20725;51.196;3.510;2022-11-20T00:41:10;103.63;;;43.60;;
15665;SDS011;20725;51.196;3.510;2022-11-20T00:43:40;112.30;;;47.83;;
15665;SDS011;20725;51.196;3.510;2022-11-20T00:46:29;92.83;;;45.33;;
15665;SDS011;20725;51.196;3.510;2022-11-20T00:49:25;89.60;;;43.00;;
15665;SDS011;20725;51.196;3.510;2022-11-20T00:52:00;90.67;;;43.03;;
15665;SDS011;20725;51.196;3.510;2022-11-20T00:54:36;92.43;;;43.40;;
15665;SDS011;20725;51.196;3.510;2022-11-20T00:57:19;88.23;;;42.40;;
15665;SDS011;20725;51.196;3.510;2022-11-20T01:00:00;88.50;;;42.73;;
15665;SDS011;20725;51.196;3.510;2022-11-20T01:02:35;79.87;;;39.37;;
15665;SDS011;20725;51.196;3.510;2022-11-20T01:05:05;84.93;;;40.50;;
15665;SDS011;20725;51.196;3.510;2022-11-20T01:07:53;80.93;;;39.97;;
15665;SDS011;20725;51.196;3.510;2022-11-20T01:10:34;82.03;;;39.57;;
15665;SDS011;20725;51.196;3.510;2022-11-20T01:13:03;88.07;;;42.20;;
15665;SDS011;20725;51.196;3.510;2022-11-20T01:15:49;81.60;;;41.13;;
15665;SDS011;20725;51.196;3.510;2022-11-20T01:18:33;91.57;;;43.17;;
15665;SDS011;20725;51.196;3.510;2022-11-20T01:21:07;81.33;;;39.63;;
15665;SDS011;20725;51.196;3.510;2022-11-20T01:23:48;88.27;;;39.40;;
15665;SDS011;20725;51.196;3.510;2022-11-20T01:26:36;81.40;;;39.00;;
15665;SDS011;20725;51.196;3.510;2022-11-20T01:29:09;85.43;;;41.23;;
15665;SDS011;20725;51.196;3.510;2022-11-20T01:31:59;84.80;;;41.07;;
15665;SDS011;20725;51.196;3.510;2022-11-20T01:34:38;81.43;;;40.20;;
15665;SDS011;20725;51.196;3.510;2022-11-20T01:37:24;87.10;;;39.53;;
15665;SDS011;20725;51.196;3.510;2022-11-20T01:40:11;83.73;;;39.13;;
15665;SDS011;20725;51.196;3.510;2022-11-20T01:42:43;92.93;;;39.53;;
15665;SDS011;20725;51.196;3.510;2022-11-20T01:45:48;101.03;;;39.87;;
15665;SDS011;20725;51.196;3.510;2022-11-20T01:48:49;92.47;;;40.20;;
15665;SDS011;20725;51.196;3.510;2022-11-20T01:51:28;87.20;;;37.50;;
15665;SDS011;20725;51.196;3.510;2022-11-20T01:54:04;93.07;;;39.17;;
15665;SDS011;20725;51.196;3.510;2022-11-20T01:56:48;96.10;;;41.47;;
15665;SDS011;20725;51.196;3.510;2022-11-20T01:59:21;87.87;;;39.00;;
15665;SDS011;20725;51.196;3.510;2022-11-20T02:02:04;98.20;;;41.80;;
15665;SDS011;20725;51.196;3.510;2022-11-20T02:04:33;80.57;;;39.03;;
15665;SDS011;20725;51.196;3.510;2022-11-20T02:07:10;89.80;;;40.20;;
15665;SDS011;20725;51.196;3.510;2022-11-20T02:09:44;93.30;;;38.60;;
15665;SDS011;20725;51.196;3.510;2022-11-20T02:12:22;90.80;;;39.50;;
15665;SDS011;20725;51.196;3.510;2022-11-20T02:18:03;80.60;;;39.73;;
15665;SDS011;20725;51.196;3.510;2022-11-20T02:20:41;87.93;;;38.73;;
15665;SDS011;20725;51.196;3.510;2022-11-20T02:24:03;105.87;;;43.27;;
15665;SDS011;20725;51.196;3.510;2022-11-20T02:26:46;95.57;;;39.33;;
15665;SDS011;20725;51.196;3.510;2022-11-20T02:29:38;95.33;;;40.73;;
15665;SDS011;20725;51.196;3.510;2022-11-20T02:32:17;105.37;;;42.97;;
15665;SDS011;20725;51.196;3.510;2022-11-20T02:34:55;101.63;;;42.03;;
15665;SDS011;20725;51.196;3.510;2022-11-20T02:37:41;101.30;;;43.70;;
15665;SDS011;20725;51.196;3.510;2022-11-20T02:45:41;107.13;;;44.07;;
15665;SDS011;20725;51.196;3.510;2022-11-20T02:48:29;112.17;;;43.80;;
15665;SDS011;20725;51.196;3.510;2022-11-20T02:51:00;101.97;;;43.40;;
15665;SDS011;20725;51.196;3.510;2022-11-20T02:53:31;106.00;;;44.47;;
15665;SDS011;20725;51.196;3.510;2022-11-20T02:56:07;113.00;;;45.13;;
15665;SDS011;20725;51.196;3.510;2022-11-20T02:58:50;113.53;;;44.60;;
15665;SDS011;20725;51.196;3.510;2022-11-20T03:01:32;114.90;;;44.87;;
15665;SDS011;20725;51.196;3.510;2022-11-20T03:04:26;101.67;;;43.60;;
15665;SDS011;20725;51.196;3.510;2022-11-20T03:06:56;112.27;;;44.47;;
15665;SDS011;20725;51.196;3.510;2022-11-20T03:09:34;114.20;;;45.63;;
15665;SDS011;20725;51.196;3.510;2022-11-20T03:12:07;111.67;;;43.90;;
15665;SDS011;20725;51.196;3.510;2022-11-20T03:17:47;126.60;;;47.30;;
15665;SDS011;20725;51.196;3.510;2022-11-20T03:20:22;122.23;;;46.47;;
15665;SDS011;20725;51.196;3.510;2022-11-20T03:23:07;134.43;;;49.43;;
15665;SDS011;20725;51.196;3.510;2022-11-20T03:25:53;129.70;;;49.53;;
15665;SDS011;20725;51.196;3.510;2022-11-20T03:31:52;134.67;;;53.13;;
15665;SDS011;20725;51.196;3.510;2022-11-20T03:34:35;135.23;;;49.63;;
15665;SDS011;20725;51.196;3.510;2022-11-20T03:37:09;133.00;;;50.93;;
15665;SDS011;20725;51.196;3.510;2022-11-20T03:39:53;126.80;;;50.27;;
15665;SDS011;20725;51.196;3.510;2022-11-20T03:42:40;134.13;;;49.87;;
15665;SDS011;20725;51.196;3.510;2022-11-20T03:45:20;133.73;;;53.00;;
15665;SDS011;20725;51.196;3.510;2022-11-20T03:47:58;135.87;;;50.30;;
15665;SDS011;20725;51.196;3.510;2022-11-20T03:50:43;121.47;;;50.10;;
15665;SDS011;20725;51.196;3.510;2022-11-20T03:53:18;117.17;;;47.13;;
15665;SDS011;20725;51.196;3.510;2022-11-20T03:55:59;139.80;;;50.07;;
15665;SDS011;20725;51.196;3.510;2022-11-20T03:58:43;122.53;;;48.37;;
15665;SDS011;20725;51.196;3.510;2022-11-20T04:01:26;126.10;;;47.83;;
15665;SDS011;20725;51.196;3.510;2022-11-20T04:04:00;117.10;;;47.70;;
15665;SDS011;20725;51.196;3.510;2022-11-20T04:06:45;120.70;;;46.37;;
15665;SDS011;20725;51.196;3.510;2022-11-20T04:09:22;113.80;;;47.10;;
15665;SDS011;20725;51.196;3.510;2022-11-20T04:12:00;122.80;;;47.03;;
15665;SDS011;20725;51.196;3.510;2022-11-20T04:14:32;120.40;;;45.00;;
15665;SDS011;20725;51.196;3.510;2022-11-20T04:17:21;118.40;;;45.60;;
15665;SDS011;20725;51.196;3.510;2022-11-20T04:20:16;121.50;;;45.23;;
15665;SDS011;20725;51.196;3.510;2022-11-20T04:22:44;115.73;;;45.43;;
15665;SDS011;20725;51.196;3.510;2022-11-20T04:25:19;116.63;;;45.17;;
15665;SDS011;20725;51.196;3.510;2022-11-20T04:27:56;114.73;;;46.70;;
15665;SDS011;20725;51.196;3.510;2022-11-20T04:30:39;108.17;;;43.30;;
15665;SDS011;20725;51.196;3.510;2022-11-20T04:33:14;125.53;;;45.23;;
15665;SDS011;20725;51.196;3.510;2022-11-20T04:35:46;102.30;;;43.17;;
15665;SDS011;20725;51.196;3.510;2022-11-20T04:38:31;114.53;;;43.57;;
15665;SDS011;20725;51.196;3.510;2022-11-20T04:41:13;105.47;;;43.37;;
15665;SDS011;20725;51.196;3.510;2022-11-20T04:43:46;118.00;;;43.07;;
15665;SDS011;20725;51.196;3.510;2022-11-20T04:46:29;110.73;;;42.90;;
15665;SDS011;20725;51.196;3.510;2022-11-20T04:49:28;128.07;;;46.03;;
15665;SDS011;20725;51.196;3.510;2022-11-20T04:52:03;118.13;;;43.87;;
15665;SDS011;20725;51.196;3.510;2022-11-20T04:54:39;132.63;;;44.50;;
15665;SDS011;20725;51.196;3.510;2022-11-20T04:57:27;97.33;;;42.00;;
15665;SDS011;20725;51.196;3.510;2022-11-20T04:59:59;117.20;;;44.67;;
15665;SDS011;20725;51.196;3.510;2022-11-20T05:05:33;114.93;;;42.93;;
15665;SDS011;20725;51.196;3.510;2022-11-20T05:08:06;128.67;;;47.00;;
15665;SDS011;20725;51.196;3.510;2022-11-20T05:10:34;145.57;;;44.33;;
15665;SDS011;20725;51.196;3.510;2022-11-20T05:13:07;117.33;;;43.10;;
15665;SDS011;20725;51.196;3.510;2022-11-20T05:15:43;130.10;;;44.50;;
15665;SDS011;20725;51.196;3.510;2022-11-20T05:18:13;138.73;;;45.97;;
15665;SDS011;20725;51.196;3.510;2022-11-20T05:20:45;128.93;;;44.63;;
15665;SDS011;20725;51.196;3.510;2022-11-20T05:26:37;112.47;;;40.80;;
15665;SDS011;20725;51.196;3.510;2022-11-20T05:30:51;115.67;;;41.33;;
15665;SDS011;20725;51.196;3.510;2022-11-20T05:32:07;113.07;;;40.57;;
15665;SDS011;20725;51.196;3.510;2022-11-20T05:34:45;130.10;;;44.00;;
15665;SDS011;20725;51.196;3.510;2022-11-20T05:37:28;122.07;;;39.13;;
15665;SDS011;20725;51.196;3.510;2022-11-20T05:40:11;121.07;;;42.23;;
15665;SDS011;20725;51.196;3.510;2022-11-20T05:42:45;125.67;;;41.67;;
15665;SDS011;20725;51.196;3.510;2022-11-20T05:45:23;134.17;;;43.17;;
15665;SDS011;20725;51.196;3.510;2022-11-20T05:47:59;141.50;;;42.93;;
15665;SDS011;20725;51.196;3.510;2022-11-20T05:50:35;128.53;;;43.27;;
15665;SDS011;20725;51.196;3.510;2022-11-20T05:53:15;148.03;;;42.67;;
15665;SDS011;20725;51.196;3.510;2022-11-20T05:56:03;119.13;;;38.60;;
15665;SDS011;20725;51.196;3.510;2022-11-20T05:58:57;133.17;;;39.40;;
15665;SDS011;20725;51.196;3.510;2022-11-20T06:01:52;163.97;;;43.23;;
15665;SDS011;20725;51.196;3.510;2022-11-20T06:04:52;150.67;;;42.37;;
15665;SDS011;20725;51.196;3.510;2022-11-20T06:07:38;129.23;;;38.17;;
15665;SDS011;20725;51.196;3.510;2022-11-20T06:10:19;77.70;;;24.77;;
15665;SDS011;20725;51.196;3.510;2022-11-20T06:13:10;128.47;;;40.00;;
15665;SDS011;20725;51.196;3.510;2022-11-20T06:15:52;136.03;;;42.83;;
15665;SDS011;20725;51.196;3.510;2022-11-20T06:18:40;134.60;;;42.03;;
15665;SDS011;20725;51.196;3.510;2022-11-20T06:21:28;144.20;;;43.67;;
15665;SDS011;20725;51.196;3.510;2022-11-20T06:24:01;146.93;;;45.20;;
15665;SDS011;20725;51.196;3.510;2022-11-20T06:26:30;144.13;;;43.00;;
15665;SDS011;20725;51.196;3.510;2022-11-20T06:29:08;148.83;;;45.10;;
15665;SDS011;20725;51.196;3.510;2022-11-20T06:31:54;142.60;;;44.33;;
15665;SDS011;20725;51.196;3.510;2022-11-20T06:34:30;138.40;;;44.80;;
15665;SDS011;20725;51.196;3.510;2022-11-20T06:37:05;124.17;;;39.73;;
15665;SDS011;20725;51.196;3.510;2022-11-20T06:39:53;120.10;;;39.47;;
15665;SDS011;20725;51.196;3.510;2022-11-20T06:42:44;108.60;;;36.07;;
15665;SDS011;20725;51.196;3.510;2022-11-20T06:45:18;100.40;;;35.77;;
15665;SDS011;20725;51.196;3.510;2022-11-20T06:47:55;88.10;;;32.33;;
15665;SDS011;20725;51.196;3.510;2022-11-20T06:50:28;108.50;;;35.37;;
15665;SDS011;20725;51.196;3.510;2022-11-20T06:53:00;109.30;;;35.23;;
15665;SDS011;20725;51.196;3.510;2022-11-20T06:55:34;101.17;;;37.13;;
15665;SDS011;20725;51.196;3.510;2022-11-20T06:58:16;111.57;;;35.77;;
15665;SDS011;20725;51.196;3.510;2022-11-20T07:00:54;112.13;;;37.83;;
15665;SDS011;20725;51.196;3.510;2022-11-20T07:03:44;119.03;;;37.30;;
15665;SDS011;20725;51.196;3.510;2022-11-20T07:06:20;118.63;;;35.57;;
15665;SDS011;20725;51.196;3.510;2022-11-20T07:08:50;109.97;;;37.37;;
15665;SDS011;20725;51.196;3.510;2022-11-20T07:11:32;125.90;;;36.93;;
15665;SDS011;20725;51.196;3.510;2022-11-20T07:14:40;121.10;;;39.03;;
15665;SDS011;20725;51.196;3.510;2022-11-20T07:17:39;142.73;;;37.50;;
15665;SDS011;20725;51.196;3.510;2022-11-20T07:20:23;132.20;;;36.10;;
15665;SDS011;20725;51.196;3.510;2022-11-20T07:23:14;144.60;;;36.60;;
15665;SDS011;20725;51.196;3.510;2022-11-20T07:25:49;149.13;;;36.87;;
15665;SDS011;20725;51.196;3.510;2022-11-20T07:28:44;150.10;;;36.97;;
15665;SDS011;20725;51.196;3.510;2022-11-20T07:31:37;147.17;;;37.33;;
15665;SDS011;20725;51.196;3.510;2022-11-20T07:34:16;150.27;;;39.27;;
15665;SDS011;20725;51.196;3.510;2022-11-20T07:37:00;168.53;;;39.27;;
15665;SDS011;20725;51.196;3.510;2022-11-20T07:39:40;148.13;;;38.67;;
15665;SDS011;20725;51.196;3.510;2022-11-20T07:42:27;160.27;;;38.27;;
15665;SDS011;20725;51.196;3.510;2022-11-20T07:45:04;132.97;;;39.37;;
15665;SDS011;20725;51.196;3.510;2022-11-20T07:47:40;158.20;;;40.50;;
15665;SDS011;20725;51.196;3.510;2022-11-20T07:50:28;171.20;;;40.47;;
15665;SDS011;20725;51.196;3.510;2022-11-20T07:53:11;169.37;;;41.57;;
15665;SDS011;20725;51.196;3.510;2022-11-20T07:55:48;144.37;;;39.63;;
15665;SDS011;20725;51.196;3.510;2022-11-20T07:58:32;145.53;;;39.83;;
15665;SDS011;20725;51.196;3.510;2022-11-20T08:01:39;133.37;;;39.17;;
15665;SDS011;20725;51.196;3.510;2022-11-20T08:04:28;158.27;;;39.73;;
15665;SDS011;20725;51.196;3.510;2022-11-20T08:09:50;151.50;;;40.90;;
15665;SDS011;20725;51.196;3.510;2022-11-20T08:13:52;160.93;;;42.47;;
15665;SDS011;20725;51.196;3.510;2022-11-20T08:15:41;142.77;;;40.07;;
15665;SDS011;20725;51.196;3.510;2022-11-20T08:18:30;155.73;;;39.13;;
15665;SDS011;20725;51.196;3.510;2022-11-20T08:21:02;148.93;;;40.30;;
15665;SDS011;20725;51.196;3.510;2022-11-20T08:37:17;141.90;;;36.43;;
15665;SDS011;20725;51.196;3.510;2022-11-20T08:39:51;138.60;;;35.17;;
15665;SDS011;20725;51.196;3.510;2022-11-20T08:42:45;125.73;;;34.60;;
15665;SDS011;20725;51.196;3.510;2022-11-20T08:45:20;132.97;;;35.43;;
15665;SDS011;20725;51.196;3.510;2022-11-20T08:48:18;145.77;;;36.90;;
15665;SDS011;20725;51.196;3.510;2022-11-20T08:51:00;117.80;;;34.10;;
15665;SDS011;20725;51.196;3.510;2022-11-20T08:53:50;149.63;;;38.37;;
15665;SDS011;20725;51.196;3.510;2022-11-20T08:56:42;110.00;;;30.63;;
15665;SDS011;20725;51.196;3.510;2022-11-20T08:59:26;93.37;;;26.47;;
15665;SDS011;20725;51.196;3.510;2022-11-20T09:02:13;113.17;;;32.93;;
15665;SDS011;20725;51.196;3.510;2022-11-20T09:04:56;122.57;;;33.67;;
15665;SDS011;20725;51.196;3.510;2022-11-20T09:07:37;124.60;;;35.27;;
15665;SDS011;20725;51.196;3.510;2022-11-20T09:16:58;107.57;;;33.43;;
15665;SDS011;20725;51.196;3.510;2022-11-20T09:19:44;123.93;;;35.03;;
15665;SDS011;20725;51.196;3.510;2022-11-20T09:22:13;120.30;;;37.40;;
15665;SDS011;20725;51.196;3.510;2022-11-20T09:25:01;97.43;;;34.47;;
15665;SDS011;20725;51.196;3.510;2022-11-20T09:27:57;94.07;;;33.20;;
15665;SDS011;20725;51.196;3.510;2022-11-20T09:30:45;102.43;;;34.47;;
15665;SDS011;20725;51.196;3.510;2022-11-20T09:36:24;105.30;;;35.33;;
15665;SDS011;20725;51.196;3.510;2022-11-20T09:39:08;98.93;;;32.03;;
15665;SDS011;20725;51.196;3.510;2022-11-20T09:41:56;88.03;;;33.57;;
15665;SDS011;20725;51.196;3.510;2022-11-20T09:45:12;79.50;;;27.53;;
15665;SDS011;20725;51.196;3.510;2022-11-20T09:48:05;74.93;;;29.43;;
15665;SDS011;20725;51.196;3.510;2022-11-20T09:51:00;81.20;;;30.83;;
15665;SDS011;20725;51.196;3.510;2022-11-20T09:53:55;74.37;;;30.13;;
15665;SDS011;20725;51.196;3.510;2022-11-20T09:56:56;66.33;;;30.27;;
15665;SDS011;20725;51.196;3.510;2022-11-20T09:59:35;75.97;;;31.70;;
15665;SDS011;20725;51.196;3.510;2022-11-20T10:02:25;66.53;;;28.00;;
15665;SDS011;20725;51.196;3.510;2022-11-20T10:05:12;55.50;;;26.30;;
15665;SDS011;20725;51.196;3.510;2022-11-20T10:11:03;52.23;;;21.57;;
15665;SDS011;20725;51.196;3.510;2022-11-20T10:13:57;47.20;;;24.10;;
15665;SDS011;20725;51.196;3.510;2022-11-20T10:16:53;44.87;;;23.27;;
15665;SDS011;20725;51.196;3.510;2022-11-20T10:19:40;41.57;;;21.40;;
15665;SDS011;20725;51.196;3.510;2022-11-20T10:22:39;40.90;;;21.00;;
15665;SDS011;20725;51.196;3.510;2022-11-20T10:28:56;34.97;;;19.57;;
15665;SDS011;20725;51.196;3.510;2022-11-20T10:31:54;30.77;;;17.63;;
15665;SDS011;20725;51.196;3.510;2022-11-20T10:34:57;27.40;;;15.20;;
15665;SDS011;20725;51.196;3.510;2022-11-20T10:37:53;26.43;;;14.90;;
15665;SDS011;20725;51.196;3.510;2022-11-20T10:40:54;29.93;;;15.93;;
15665;SDS011;20725;51.196;3.510;2022-11-20T10:43:48;24.43;;;15.40;;
15665;SDS011;20725;51.196;3.510;2022-11-20T10:46:21;25.13;;;15.00;;
15665;SDS011;20725;51.196;3.510;2022-11-20T10:49:12;19.20;;;12.63;;
15665;SDS011;20725;51.196;3.510;2022-11-20T10:52:13;19.90;;;12.50;;
15665;SDS011;20725;51.196;3.510;2022-11-20T10:54:55;15.73;;;12.20;;
15665;SDS011;20725;51.196;3.510;2022-11-20T10:57:52;14.73;;;11.30;;
15665;SDS011;20725;51.196;3.510;2022-11-20T11:00:30;19.23;;;11.93;;
15665;SDS011;20725;51.196;3.510;2022-11-20T11:03:19;16.93;;;10.37;;
15665;SDS011;20725;51.196;3.510;2022-11-20T11:06:06;14.03;;;9.13;;
15665;SDS011;20725;51.196;3.510;2022-11-20T11:08:55;12.47;;;8.70;;
15665;SDS011;20725;51.196;3.510;2022-11-20T11:11:29;10.90;;;8.50;;
15665;SDS011;20725;51.196;3.510;2022-11-20T11:14:12;8.47;;;7.17;;
15665;SDS011;20725;51.196;3.510;2022-11-20T11:20:04;7.60;;;6.17;;
15665;SDS011;20725;51.196;3.510;2022-11-20T11:22:43;12.40;;;6.03;;
15665;SDS011;20725;51.196;3.510;2022-11-20T11:28:19;6.23;;;5.60;;
15665;SDS011;20725;51.196;3.510;2022-11-20T11:31:02;8.17;;;5.50;;
15665;SDS011;20725;51.196;3.510;2022-11-20T11:36:49;6.47;;;4.77;;
15665;SDS011;20725;51.196;3.510;2022-11-20T11:39:39;5.97;;;5.37;;
15665;SDS011;20725;51.196;3.510;2022-11-20T11:42:18;5.80;;;5.13;;
15665;SDS011;20725;51.196;3.510;2022-11-20T11:44:47;6.93;;;4.90;;
15665;SDS011;20725;51.196;3.510;2022-11-20T11:47:34;6.33;;;4.70;;
15665;SDS011;20725;51.196;3.510;2022-11-20T11:53:12;9.57;;;5.23;;
15665;SDS011;20725;51.196;3.510;2022-11-20T11:55:46;6.93;;;4.73;;
15665;SDS011;20725;51.196;3.510;2022-11-20T11:58:30;4.00;;;3.60;;
15665;SDS011;20725;51.196;3.510;2022-11-20T12:01:24;6.93;;;4.03;;
15665;SDS011;20725;51.196;3.510;2022-11-20T12:04:19;7.20;;;5.70;;
15665;SDS011;20725;51.196;3.510;2022-11-20T12:10:08;14.63;;;4.87;;
15665;SDS011;20725;51.196;3.510;2022-11-20T12:12:50;8.40;;;4.80;;
15665;SDS011;20725;51.196;3.510;2022-11-20T12:15:42;7.10;;;4.20;;
15665;SDS011;20725;51.196;3.510;2022-11-20T12:18:27;7.47;;;4.50;;
15665;SDS011;20725;51.196;3.510;2022-11-20T12:21:09;4.30;;;2.87;;
15665;SDS011;20725;51.196;3.510;2022-11-20T12:24:04;7.30;;;4.37;;
15665;SDS011;20725;51.196;3.510;2022-11-20T12:30:27;7.03;;;4.23;;
15665;SDS011;20725;51.196;3.510;2022-11-20T12:33:19;5.60;;;3.67;;
15665;SDS011;20725;51.196;3.510;2022-11-20T12:36:23;4.60;;;4.17;;
15665;SDS011;20725;51.196;3.510;2022-11-20T12:39:20;4.70;;;4.30;;
15665;SDS011;20725;51.196;3.510;2022-11-20T12:49:29;10.13;;;4.50;;
15665;SDS011;20725;51.196;3.510;2022-11-20T12:52:37;6.90;;;5.30;;
15665;SDS011;20725;51.196;3.510;2022-11-20T12:55:28;5.60;;;4.67;;
15665;SDS011;20725;51.196;3.510;2022-11-20T12:58:20;5.33;;;4.73;;
15665;SDS011;20725;51.196;3.510;2022-11-20T13:01:21;4.23;;;3.87;;
15665;SDS011;20725;51.196;3.510;2022-11-20T13:07:28;4.13;;;3.73;;
15665;SDS011;20725;51.196;3.510;2022-11-20T13:10:14;6.70;;;5.07;;
15665;SDS011;20725;51.196;3.510;2022-11-20T13:13:03;4.70;;;4.40;;
15665;SDS011;20725;51.196;3.510;2022-11-20T13:16:04;3.80;;;3.47;;
15665;SDS011;20725;51.196;3.510;2022-11-20T13:18:49;5.03;;;4.43;;
15665;SDS011;20725;51.196;3.510;2022-11-20T13:21:34;5.30;;;4.70;;
15665;SDS011;20725;51.196;3.510;2022-11-20T13:24:28;4.43;;;4.13;;
15665;SDS011;20725;51.196;3.510;2022-11-20T13:27:23;4.10;;;3.80;;
15665;SDS011;20725;51.196;3.510;2022-11-20T13:33:01;4.73;;;4.33;;
15665;SDS011;20725;51.196;3.510;2022-11-20T13:36:20;4.83;;;4.37;;
15665;SDS011;20725;51.196;3.510;2022-11-20T13:39:01;5.40;;;5.00;;
15665;SDS011;20725;51.196;3.510;2022-11-20T13:45:00;5.03;;;4.67;;
15665;SDS011;20725;51.196;3.510;2022-11-20T13:47:33;4.97;;;4.57;;
15665;SDS011;20725;51.196;3.510;2022-11-20T13:50:37;6.00;;;5.43;;
15665;SDS011;20725;51.196;3.510;2022-11-20T13:53:32;6.27;;;5.47;;
15665;SDS011;20725;51.196;3.510;2022-11-20T13:56:37;6.63;;;6.13;;
15665;SDS011;20725;51.196;3.510;2022-11-20T13:59:37;5.40;;;5.00;;
15665;SDS011;20725;51.196;3.510;2022-11-20T14:05:50;6.40;;;5.90;;
15665;SDS011;20725;51.196;3.510;2022-11-20T14:08:30;6.30;;;5.90;;
15665;SDS011;20725;51.196;3.510;2022-11-20T14:11:22;7.47;;;6.90;;
15665;SDS011;20725;51.196;3.510;2022-11-20T14:14:00;6.87;;;6.37;;
15665;SDS011;20725;51.196;3.510;2022-11-20T14:16:53;8.83;;;8.03;;
15665;SDS011;20725;51.196;3.510;2022-11-20T14:23:04;7.33;;;6.60;;
15665;SDS011;20725;51.196;3.510;2022-11-20T14:25:53;6.63;;;5.87;;
15665;SDS011;20725;51.196;3.510;2022-11-20T14:28:35;6.27;;;5.77;;
15665;SDS011;20725;51.196;3.510;2022-11-20T14:31:31;5.50;;;5.10;;
15665;SDS011;20725;51.196;3.510;2022-11-20T14:34:13;5.83;;;5.10;;
15665;SDS011;20725;51.196;3.510;2022-11-20T14:37:17;6.03;;;4.93;;
15665;SDS011;20725;51.196;3.510;2022-11-20T14:39:58;7.10;;;4.50;;
15665;SDS011;20725;51.196;3.510;2022-11-20T14:42:43;6.63;;;4.63;;
15665;SDS011;20725;51.196;3.510;2022-11-20T14:45:24;10.70;;;4.70;;
15665;SDS011;20725;51.196;3.510;2022-11-20T14:48:00;7.73;;;3.50;;
15665;SDS011;20725;51.196;3.510;2022-11-20T14:50:37;18.80;;;4.60;;
15665;SDS011;20725;51.196;3.510;2022-11-20T14:56:23;12.70;;;4.00;;
15665;SDS011;20725;51.196;3.510;2022-11-20T14:59:05;13.70;;;4.53;;
15665;SDS011;20725;51.196;3.510;2022-11-20T15:01:35;10.60;;;3.97;;
15665;SDS011;20725;51.196;3.510;2022-11-20T15:04:09;17.83;;;4.47;;
15665;SDS011;20725;51.196;3.510;2022-11-20T15:06:50;13.53;;;4.03;;
15665;SDS011;20725;51.196;3.510;2022-11-20T15:09:26;18.43;;;4.07;;
15665;SDS011;20725;51.196;3.510;2022-11-20T15:12:02;17.20;;;3.90;;
15665;SDS011;20725;51.196;3.510;2022-11-20T15:14:34;13.13;;;3.83;;
15665;SDS011;20725;51.196;3.510;2022-11-20T15:17:20;16.20;;;3.80;;
15665;SDS011;20725;51.196;3.510;2022-11-20T15:19:54;13.30;;;4.57;;
15665;SDS011;20725;51.196;3.510;2022-11-20T15:22:41;14.13;;;3.57;;
15665;SDS011;20725;51.196;3.510;2022-11-20T15:25:16;12.57;;;4.60;;
15665;SDS011;20725;51.196;3.510;2022-11-20T15:27:50;13.33;;;3.93;;
15665;SDS011;20725;51.196;3.510;2022-11-20T15:30:33;13.07;;;4.23;;
15665;SDS011;20725;51.196;3.510;2022-11-20T15:33:14;16.53;;;4.20;;
15665;SDS011;20725;51.196;3.510;2022-11-20T15:35:59;14.90;;;4.53;;
15665;SDS011;20725;51.196;3.510;2022-11-20T15:38:31;20.03;;;4.97;;
15665;SDS011;20725;51.196;3.510;2022-11-20T15:41:12;14.50;;;4.60;;
15665;SDS011;20725;51.196;3.510;2022-11-20T15:43:43;16.77;;;4.17;;
15665;SDS011;20725;51.196;3.510;2022-11-20T15:46:18;13.40;;;4.33;;
15665;SDS011;20725;51.196;3.510;2022-11-20T15:48:58;12.07;;;4.23;;
15665;SDS011;20725;51.196;3.510;2022-11-20T15:51:31;15.73;;;4.43;;
15665;SDS011;20725;51.196;3.510;2022-11-20T15:54:12;14.20;;;4.00;;
15665;SDS011;20725;51.196;3.510;2022-11-20T15:57:02;17.90;;;4.23;;
15665;SDS011;20725;51.196;3.510;2022-11-20T15:59:32;12.87;;;4.07;;
15665;SDS011;20725;51.196;3.510;2022-11-20T16:02:04;9.80;;;4.77;;
15665;SDS011;20725;51.196;3.510;2022-11-20T16:04:36;16.57;;;3.57;;
15665;SDS011;20725;51.196;3.510;2022-11-20T16:07:22;10.90;;;3.90;;
15665;SDS011;20725;51.196;3.510;2022-11-20T16:09:51;12.80;;;4.23;;
15665;SDS011;20725;51.196;3.510;2022-11-20T16:12:22;12.07;;;4.47;;
15665;SDS011;20725;51.196;3.510;2022-11-20T16:15:15;17.53;;;3.90;;
15665;SDS011;20725;51.196;3.510;2022-11-20T16:18:11;9.53;;;2.80;;
15665;SDS011;20725;51.196;3.510;2022-11-20T16:20:59;8.30;;;3.30;;
15665;SDS011;20725;51.196;3.510;2022-11-20T16:23:31;9.87;;;3.33;;
15665;SDS011;20725;51.196;3.510;2022-11-20T16:26:10;12.80;;;3.50;;
15665;SDS011;20725;51.196;3.510;2022-11-20T16:28:45;9.40;;;3.20;;
15665;SDS011;20725;51.196;3.510;2022-11-20T16:31:15;13.43;;;3.57;;
15665;SDS011;20725;51.196;3.510;2022-11-20T16:33:54;11.47;;;3.63;;
15665;SDS011;20725;51.196;3.510;2022-11-20T16:36:25;12.00;;;3.77;;
15665;SDS011;20725;51.196;3.510;2022-11-20T16:39:08;16.20;;;4.53;;
15665;SDS011;20725;51.196;3.510;2022-11-20T16:41:49;11.90;;;3.93;;
15665;SDS011;20725;51.196;3.510;2022-11-20T16:47:19;17.07;;;4.60;;
15665;SDS011;20725;51.196;3.510;2022-11-20T16:49:51;21.47;;;5.33;;
15665;SDS011;20725;51.196;3.510;2022-11-20T16:52:34;23.53;;;4.93;;
15665;SDS011;20725;51.196;3.510;2022-11-20T16:55:17;14.17;;;4.37;;
15665;SDS011;20725;51.196;3.510;2022-11-20T16:57:51;20.67;;;4.50;;
15665;SDS011;20725;51.196;3.510;2022-11-20T17:03:40;12.60;;;4.83;;
15665;SDS011;20725;51.196;3.510;2022-11-20T17:06:12;14.10;;;4.43;;
15665;SDS011;20725;51.196;3.510;2022-11-20T17:08:44;12.97;;;4.80;;
15665;SDS011;20725;51.196;3.510;2022-11-20T17:11:20;23.80;;;4.97;;
15665;SDS011;20725;51.196;3.510;2022-11-20T17:13:53;16.30;;;4.53;;
15665;SDS011;20725;51.196;3.510;2022-11-20T17:16:41;16.87;;;5.20;;
15665;SDS011;20725;51.196;3.510;2022-11-20T17:19:27;18.87;;;6.20;;
15665;SDS011;20725;51.196;3.510;2022-11-20T17:22:10;23.47;;;6.00;;
15665;SDS011;20725;51.196;3.510;2022-11-20T17:24:38;19.33;;;4.90;;
15665;SDS011;20725;51.196;3.510;2022-11-20T17:27:17;13.20;;;5.00;;
15665;SDS011;20725;51.196;3.510;2022-11-20T17:29:50;19.07;;;6.13;;
15665;SDS011;20725;51.196;3.510;2022-11-20T17:32:27;24.43;;;6.10;;
15665;SDS011;20725;51.196;3.510;2022-11-20T17:34:59;18.67;;;5.53;;
15665;SDS011;20725;51.196;3.510;2022-11-20T17:37:31;15.33;;;5.23;;
15665;SDS011;20725;51.196;3.510;2022-11-20T17:40:08;25.77;;;7.67;;